Time;durP1;ratioP1;P1;durP2;ratioP2;P2;SDS_P1;SDS_P2;PMS_P1;PMS_P2;Temp;Humidity;BMP_temperature;BMP_pressure;BME280_temperature;BME280_humidity;BME280_pressure;Samples;Min_cycle;Max_cycle;Signal;HPM_P1;HPM_P2
2021/12/12 00:00:29;;;;;;;21.25;10.82;;;;;;;6.51;63.12;101598.44;689700;28;2071;-85
2021/12/12 00:00:58;;;;;;;25.58;11.00;;;;;;;6.50;63.37;101607.03;695348;28;1254;-85
2021/12/12 00:01:23;;;;;;;23.83;10.80;;;;;;;6.36;63.17;101593.22;687921;28;1071;-85
2021/12/12 00:01:49;;;;;;;22.70;10.45;;;;;;;6.44;63.25;101605.84;688846;28;1342;-85
2021/12/12 00:02:21;;;;;;;19.67;10.30;;;;;;;6.34;63.25;101587.06;687802;28;1269;-86
2021/12/12 00:02:57;;;;;;;17.98;10.00;;;;;;;6.34;63.24;101594.84;687838;28;1443;-85
2021/12/12 00:03:34;;;;;;;18.40;9.95;;;;;;;6.31;63.46;101590.38;690493;28;1378;-85
2021/12/12 00:04:07;;;;;;;18.65;10.07;;;;;;;6.35;63.02;101600.13;685159;28;1329;-85
2021/12/12 00:04:33;;;;;;;16.85;9.80;;;;;;;6.30;63.02;101589.50;689864;28;1269;-85
2021/12/12 00:04:54;;;;;;;16.08;9.90;;;;;;;6.33;63.04;101593.06;685211;28;1325;-85
2021/12/12 00:05:20;;;;;;;17.85;10.13;;;;;;;6.34;63.29;101587.97;688301;28;1349;-85
2021/12/12 00:05:45;;;;;;;22.10;10.57;;;;;;;6.40;63.38;101610.78;686219;28;1251;-85
2021/12/12 00:06:13;;;;;;;23.65;10.52;;;;;;;6.25;63.23;101585.72;687892;28;1373;-85
2021/12/12 00:06:35;;;;;;;19.80;10.45;;;;;;;6.28;63.14;101592.78;686182;28;1141;-85
2021/12/12 00:06:58;;;;;;;23.02;10.65;;;;;;;6.26;63.37;101587.50;684759;28;1216;-85
2021/12/12 00:07:24;;;;;;;23.63;10.00;;;;;;;6.24;63.51;101596.91;687760;28;1359;-85
2021/12/12 00:07:45;;;;;;;21.55;10.05;;;;;;;6.27;63.16;101593.59;687469;28;1347;-85
2021/12/12 00:08:06;;;;;;;16.00;9.80;;;;;;;6.28;63.18;101592.78;687979;28;1211;-85
2021/12/12 00:08:27;;;;;;;16.17;9.90;;;;;;;6.22;63.49;101590.75;685820;28;1421;-85
2021/12/12 00:08:58;;;;;;;19.08;10.27;;;;;;;6.21;63.07;101583.78;685244;28;1469;-84
2021/12/12 00:09:32;;;;;;;25.10;10.30;;;;;;;6.25;63.19;101590.91;683922;28;1491;-85
2021/12/12 00:10:03;;;;;;;21.20;10.10;;;;;;;6.32;63.37;101597.34;687457;28;1070;-85
2021/12/12 00:10:30;;;;;;;20.73;10.40;;;;;;;6.24;63.02;101588.22;682232;29;1068;-85
2021/12/12 00:10:59;;;;;;;24.30;10.40;;;;;;;6.26;63.15;101587.50;684683;28;1980;-85
2021/12/12 00:11:24;;;;;;;23.95;10.20;;;;;;;6.29;63.01;101590.31;687566;28;1285;-84
2021/12/12 00:11:45;;;;;;;18.30;9.98;;;;;;;6.21;63.13;101583.78;686349;28;1372;-85
2021/12/12 00:12:11;;;;;;;16.50;9.93;;;;;;;6.29;63.74;101602.34;687792;28;1545;-85
2021/12/12 00:12:37;;;;;;;15.98;10.30;;;;;;;6.20;63.15;101596.63;685064;28;1271;-85
2021/12/12 00:13:05;;;;;;;15.25;10.13;;;;;;;6.20;63.68;101596.63;689620;28;1361;-84
2021/12/12 00:13:31;;;;;;;16.45;10.23;;;;;;;6.17;63.39;101584.38;684179;28;1323;-84
2021/12/12 00:14:11;;;;;;;17.30;10.00;;;;;;;6.13;63.19;101577.22;687507;28;1375;-85
2021/12/12 00:14:34;;;;;;;19.42;10.00;;;;;;;6.14;63.13;101576.44;686822;28;1100;-85
2021/12/12 00:15:00;;;;;;;18.58;9.98;;;;;;;6.20;63.42;101587.16;687619;28;1303;-85
2021/12/12 00:15:21;;;;;;;16.30;9.15;;;;;;;6.15;63.44;101580.81;690260;28;1321;-85
2021/12/12 00:15:42;;;;;;;17.95;9.48;;;;;;;6.08;63.27;101565.69;692075;28;1500;-85
2021/12/12 00:16:03;;;;;;;19.83;9.88;;;;;;;6.08;62.92;101570.88;687765;28;1282;-85
2021/12/12 00:16:24;;;;;;;19.83;9.88;;;;;;;6.05;63.39;101560.31;690435;28;1178;-85
2021/12/12 00:16:46;;;;;;;19.10;9.80;;;;;;;6.06;63.28;101567.31;689694;28;1126;-85
2021/12/12 00:17:09;;;;;;;16.90;9.32;;;;;;;6.14;63.15;101581.63;685339;28;1354;-85
2021/12/12 00:17:29;;;;;;;18.27;9.80;;;;;;;6.07;62.92;101564.78;682512;29;1426;-85
2021/12/12 00:17:50;;;;;;;18.93;9.90;;;;;;;6.06;63.16;101563.00;681767;29;1394;-85
2021/12/12 00:18:11;;;;;;;18.70;9.83;;;;;;;6.07;63.26;101566.50;684606;28;1359;-85
2021/12/12 00:18:31;;;;;;;16.97;9.80;;;;;;;6.02;63.57;101574.88;689277;28;1239;-85
2021/12/12 00:18:52;;;;;;;16.75;9.65;;;;;;;5.98;63.53;101566.84;687693;28;1261;-85
2021/12/12 00:19:14;;;;;;;15.95;9.48;;;;;;;6.02;63.47;101563.66;690211;28;1482;-85
2021/12/12 00:19:35;;;;;;;15.32;8.98;;;;;;;5.98;63.34;101572.03;687668;28;1447;-85
2021/12/12 00:19:56;;;;;;;15.52;9.15;;;;;;;5.96;63.56;101576.22;687910;28;1334;-85
2021/12/12 00:20:20;;;;;;;17.58;9.57;;;;;;;6.01;63.43;101585.16;687477;28;1376;-85
2021/12/12 00:20:41;;;;;;;18.92;9.55;;;;;;;5.92;63.85;101564.78;685493;28;1305;-85
2021/12/12 00:21:05;;;;;;;18.10;9.18;;;;;;;5.99;63.57;101582.50;687040;28;1207;-85
2021/12/12 00:21:27;;;;;;;20.75;9.90;;;;;;;5.91;63.70;101573.38;682084;28;1765;-84
2021/12/12 00:21:54;;;;;;;19.52;10.00;;;;;;;6.00;63.32;101576.50;682894;28;1061;-84
2021/12/12 00:22:18;;;;;;;17.20;9.60;;;;;;;5.91;63.60;101573.38;687085;28;1041;-85
2021/12/12 00:22:39;;;;;;;15.77;9.48;;;;;;;5.97;63.64;101576.34;685166;28;1272;-85
2021/12/12 00:23:01;;;;;;;20.60;9.88;;;;;;;5.94;63.92;101567.47;684730;28;1464;-85
2021/12/12 00:23:30;;;;;;;20.35;10.30;;;;;;;5.94;63.59;101577.84;684366;28;1342;-85
2021/12/12 00:23:51;;;;;;;18.70;9.60;;;;;;;5.90;63.63;101566.41;684730;28;1223;-85
2021/12/12 00:24:13;;;;;;;17.50;9.15;;;;;;;5.92;64.08;101580.34;685012;28;1412;-85
2021/12/12 00:24:35;;;;;;;17.45;9.23;;;;;;;5.93;63.79;101576.94;684772;28;1337;-84
2021/12/12 00:24:55;;;;;;;16.00;9.23;;;;;;;5.88;64.11;101576.66;690527;28;1294;-85
2021/12/12 00:25:16;;;;;;;15.23;9.20;;;;;;;5.92;63.86;101580.34;685207;28;1394;-85
2021/12/12 00:25:42;;;;;;;18.02;9.23;;;;;;;5.96;63.81;101581.41;685535;28;1211;-85
2021/12/12 00:26:04;;;;;;;18.92;8.95;;;;;;;5.97;63.74;101573.75;683184;28;1421;-85
2021/12/12 00:26:25;;;;;;;16.90;8.52;;;;;;;5.96;63.99;101571.94;688059;28;1298;-85
2021/12/12 00:26:48;;;;;;;15.30;8.52;;;;;;;6.01;63.78;101580.88;689306;28;1152;-85
2021/12/12 00:27:09;;;;;;;18.15;8.88;;;;;;;6.09;63.48;101586.53;687913;28;1313;-85
2021/12/12 00:27:30;;;;;;;18.33;8.48;;;;;;;6.14;63.54;101589.41;688137;28;1328;-85
2021/12/12 00:27:50;;;;;;;17.35;8.70;;;;;;;6.11;63.56;101578.81;694234;28;1319;-85
2021/12/12 00:28:15;;;;;;;16.70;8.57;;;;;;;6.09;63.61;101568.41;693189;28;1341;-85
2021/12/12 00:28:36;;;;;;;19.00;8.70;;;;;;;6.12;63.27;101573.75;687823;28;1278;-85
2021/12/12 00:28:57;;;;;;;18.70;8.55;;;;;;;6.16;63.20;101580.00;685174;28;1294;-85
2021/12/12 00:29:19;;;;;;;15.35;8.25;;;;;;;6.16;63.02;101574.81;685046;28;1064;-86
2021/12/12 00:29:41;;;;;;;13.68;7.82;;;;;;;6.19;63.24;101562.03;690036;28;1843;-85
2021/12/12 00:30:05;;;;;;;15.75;7.53;;;;;;;6.21;63.39;101568.22;692464;28;1281;-85
2021/12/12 00:30:26;;;;;;;16.63;8.00;;;;;;;6.28;62.72;101587.63;690523;28;1372;-85
2021/12/12 00:30:49;;;;;;;15.93;8.00;;;;;;;6.31;63.06;101587.78;689703;28;1946;-84
2021/12/12 00:31:13;;;;;;;14.82;7.80;;;;;;;6.29;63.11;101587.72;690379;28;1234;-85
2021/12/12 00:31:34;;;;;;;16.45;7.72;;;;;;;6.25;62.93;101583.13;687864;28;1422;-85
2021/12/12 00:31:59;;;;;;;16.20;7.90;;;;;;;6.32;62.91;101584.38;690677;28;1192;-85
2021/12/12 00:32:23;;;;;;;16.90;8.27;;;;;;;6.28;62.73;101578.13;690533;28;1143;-84
2021/12/12 00:32:44;;;;;;;16.50;8.00;;;;;;;6.32;62.70;101576.59;683953;28;1192;-85
2021/12/12 00:33:05;;;;;;;15.00;7.75;;;;;;;6.25;62.84;101574.44;684938;28;1340;-85
2021/12/12 00:33:26;;;;;;;16.42;7.90;;;;;;;6.26;62.85;101574.56;682543;28;1373;-85
2021/12/12 00:33:50;;;;;;;14.63;7.57;;;;;;;6.25;62.81;101570.19;683628;28;1030;-85
2021/12/12 00:34:11;;;;;;;14.10;7.43;;;;;;;6.29;62.38;101574.75;684666;28;1547;-84
2021/12/12 00:34:35;;;;;;;11.60;7.20;;;;;;;6.27;62.78;101571.16;682303;28;1667;-85
2021/12/12 00:35:00;;;;;;;15.27;8.02;;;;;;;6.25;62.78;101566.66;682721;28;1325;-85
2021/12/12 00:35:22;;;;;;;16.35;7.90;;;;;;;6.27;62.71;101576.34;684927;28;1341;-85
2021/12/12 00:35:44;;;;;;;13.15;7.50;;;;;;;6.26;62.54;101571.09;684714;28;1898;-85
2021/12/12 00:36:05;;;;;;;14.02;7.70;;;;;;;6.16;62.66;101559.28;684815;28;1575;-85
2021/12/12 00:36:28;;;;;;;13.25;7.95;;;;;;;6.20;62.61;101565.53;686396;28;1286;-85
2021/12/12 00:36:49;;;;;;;14.10;7.68;;;;;;;6.16;62.83;101564.47;686433;28;1239;-84
2021/12/12 00:37:11;;;;;;;13.15;7.13;;;;;;;6.26;62.62;101576.28;689193;28;1296;-85
2021/12/12 00:37:32;;;;;;;14.13;7.40;;;;;;;6.25;62.46;101580.53;687983;28;1635;-84
2021/12/12 00:38:00;;;;;;;16.17;7.60;;;;;;;6.23;62.44;101571.78;690273;28;1458;-85
2021/12/12 00:38:26;;;;;;;14.66;7.40;;;;;;;6.19;62.94;101569.81;686305;28;1337;-85
2021/12/12 00:38:54;;;;;;;13.60;7.50;;;;;;;6.22;62.53;101567.41;690407;28;1206;-85
2021/12/12 00:39:21;;;;;;;16.45;8.38;;;;;;;6.20;62.51;101571.59;689620;28;1465;-85
2021/12/12 00:39:49;;;;;;;20.23;8.77;;;;;;;6.17;62.84;101566.25;690509;28;1333;-85
2021/12/12 00:40:19;;;;;;;19.38;8.25;;;;;;;6.17;62.60;101571.41;686548;28;1232;-85
2021/12/12 00:40:43;;;;;;;15.43;7.28;;;;;;;6.14;62.61;101574.72;688050;28;1364;-85
2021/12/12 00:41:09;;;;;;;15.45;7.40;;;;;;;6.14;62.55;101572.13;689990;28;1237;-85
2021/12/12 00:42:01;;;;;;;16.25;7.50;;;;;;;6.12;62.67;101578.03;690551;28;1174;-85
2021/12/12 00:42:27;;;;;;;18.77;7.47;;;;;;;6.05;62.99;101560.31;686170;28;1365;-84
2021/12/12 00:42:48;;;;;;;16.42;7.20;;;;;;;6.07;62.63;101563.91;689699;28;1119;-85
2021/12/12 00:43:34;;;;;;;16.20;7.43;;;;;;;6.05;62.68;101557.72;690300;28;1289;-84
2021/12/12 00:43:58;;;;;;;10.80;6.88;;;;;;;6.02;62.64;101556.75;677619;28;2139;-85
2021/12/12 00:44:19;;;;;;;13.93;6.78;;;;;;;6.07;62.88;101574.28;685402;28;1527;-85
2021/12/12 00:44:45;;;;;;;14.70;6.70;;;;;;;6.01;62.79;101559.25;687906;28;1266;-85
2021/12/12 00:45:10;;;;;;;14.93;7.07;;;;;;;6.03;62.94;101565.44;690301;28;1229;-85
2021/12/12 00:45:31;;;;;;;14.25;7.55;;;;;;;6.00;62.92;101557.47;690595;28;1959;-85
2021/12/12 00:45:54;;;;;;;14.90;7.90;;;;;;;6.01;63.00;101567.91;686994;28;1297;-85
2021/12/12 00:46:17;;;;;;;15.68;7.43;;;;;;;5.99;63.10;101561.75;685164;28;1438;-85
2021/12/12 00:46:37;;;;;;;14.52;7.00;;;;;;;5.98;62.73;101562.56;687428;28;1406;-85
2021/12/12 00:47:01;;;;;;;12.10;6.40;;;;;;;6.04;63.17;101575.00;684783;28;1454;-85
2021/12/12 00:47:22;;;;;;;10.88;6.00;;;;;;;6.01;62.71;101579.97;684140;28;1291;-85
2021/12/12 00:47:45;;;;;;;12.70;6.13;;;;;;;6.03;62.91;101568.03;684142;28;1198;-85
2021/12/12 00:48:06;;;;;;;13.82;6.68;;;;;;;6.00;62.87;101563.56;685071;28;1414;-85
2021/12/12 00:48:29;;;;;;;12.60;6.85;;;;;;;5.99;63.17;101561.75;679951;29;1303;-85
2021/12/12 00:48:50;;;;;;;10.80;6.80;;;;;;;5.98;63.25;101557.38;687909;28;1178;-85
2021/12/12 00:49:12;;;;;;;10.93;6.57;;;;;;;5.99;62.95;101560.84;684388;28;1350;-84
2021/12/12 00:49:35;;;;;;;11.40;6.63;;;;;;;5.97;63.21;101558.19;684129;28;1208;-84
2021/12/12 00:49:56;;;;;;;14.88;7.05;;;;;;;6.02;63.00;101569.69;687782;28;1321;-85
2021/12/12 00:50:24;;;;;;;17.52;7.35;;;;;;;6.08;62.79;101576.06;687378;28;1301;-85
2021/12/12 00:50:46;;;;;;;19.10;6.90;;;;;;;6.07;62.98;101569.97;683655;28;1956;-85
2021/12/12 00:51:09;;;;;;;15.98;7.00;;;;;;;6.11;63.05;101576.22;690081;28;1239;-85
2021/12/12 00:51:35;;;;;;;14.15;6.82;;;;;;;6.09;62.88;101564.91;690359;28;1363;-85
2021/12/12 00:51:56;;;;;;;12.85;7.25;;;;;;;6.06;62.57;101563.00;688088;28;1299;-85
2021/12/12 00:52:18;;;;;;;13.60;7.18;;;;;;;6.08;62.72;101571.75;692993;28;1246;-85
2021/12/12 00:52:41;;;;;;;11.88;7.03;;;;;;;6.05;62.68;101565.50;690381;28;1305;-84
2021/12/12 00:53:05;;;;;;;11.55;6.68;;;;;;;6.06;62.55;101559.53;684654;28;1519;-85
2021/12/12 00:53:26;;;;;;;15.07;7.22;;;;;;;6.08;62.50;101565.69;690368;28;1416;-85
2021/12/12 00:53:47;;;;;;;16.10;7.40;;;;;;;6.11;62.38;101565.88;688861;28;1277;-85
2021/12/12 00:54:10;;;;;;;13.97;7.13;;;;;;;6.11;62.61;101569.38;682765;28;1204;-85
2021/12/12 00:54:31;;;;;;;15.02;6.85;;;;;;;6.07;62.31;101561.31;687905;28;1388;-85
2021/12/12 00:54:52;;;;;;;17.63;6.70;;;;;;;6.10;62.65;101566.69;684716;28;1144;-85
2021/12/12 00:55:13;;;;;;;18.02;6.80;;;;;;;6.05;62.65;101560.31;687795;28;1235;-85
2021/12/12 00:55:38;;;;;;;17.42;6.97;;;;;;;6.10;62.85;101580.53;688326;28;1396;-84
2021/12/12 00:55:59;;;;;;;14.23;6.95;;;;;;;6.10;62.72;101562.41;692990;28;1158;-85
2021/12/12 00:56:20;;;;;;;15.57;6.80;;;;;;;6.06;62.40;101552.66;690068;28;1377;-85
2021/12/12 00:56:41;;;;;;;13.98;6.70;;;;;;;6.11;62.75;101563.28;688113;28;1504;-85
2021/12/12 00:57:06;;;;;;;11.63;6.53;;;;;;;6.09;62.30;101562.31;687543;28;1329;-85
2021/12/12 00:57:27;;;;;;;13.38;7.10;;;;;;;6.12;62.46;101565.97;688331;28;1374;-85
2021/12/12 00:57:52;;;;;;;14.00;6.88;;;;;;;6.08;62.32;101560.53;690554;28;1500;-86
2021/12/12 00:58:15;;;;;;;13.60;6.55;;;;;;;6.16;62.68;101580.00;684624;28;1005;-85
2021/12/12 00:58:36;;;;;;;11.80;6.32;;;;;;;6.12;62.35;101572.84;689147;28;1133;-85
2021/12/12 00:58:57;;;;;;;11.32;6.60;;;;;;;6.06;62.69;101556.94;684993;28;1278;-84
2021/12/12 00:59:18;;;;;;;12.40;6.90;;;;;;;6.10;62.61;101561.50;684052;28;1525;-85
2021/12/12 00:59:39;;;;;;;11.90;6.50;;;;;;;6.11;62.52;101565.88;681524;28;1038;-84
2021/12/12 01:00:00;;;;;;;14.27;6.40;;;;;;;6.20;62.47;101576.78;686759;28;1243;-85
2021/12/12 01:00:29;;;;;;;19.70;6.47;;;;;;;6.05;62.42;101560.31;691528;28;1320;-85
2021/12/12 01:01:02;;;;;;;17.45;6.65;;;;;;;6.13;62.66;101574.63;687502;28;1275;-84
2021/12/12 01:01:36;;;;;;;10.75;6.25;;;;;;;6.10;62.59;101564.09;686765;28;1383;-85
2021/12/12 01:01:58;;;;;;;12.10;5.80;;;;;;;6.08;62.46;101565.69;683969;28;1497;-85
2021/12/12 01:02:22;;;;;;;12.60;5.93;;;;;;;6.08;62.48;101570.88;682798;28;1345;-84
2021/12/12 01:02:43;;;;;;;14.60;6.22;;;;;;;6.08;62.66;101563.09;683615;28;1251;-85
2021/12/12 01:03:05;;;;;;;13.97;6.40;;;;;;;6.14;62.47;101576.44;684339;28;1427;-85
2021/12/12 01:03:32;;;;;;;13.25;6.47;;;;;;;6.13;62.37;101572.94;686591;28;1128;-85
2021/12/12 01:04:01;;;;;;;12.32;6.57;;;;;;;6.10;62.23;101558.91;689865;28;1988;-85
2021/12/12 01:04:31;;;;;;;12.82;6.63;;;;;;;6.16;62.33;101564.47;683811;28;1279;-85
2021/12/12 01:04:58;;;;;;;13.38;6.72;;;;;;;6.07;62.44;101549.25;688460;28;1223;-84
2021/12/12 01:05:22;;;;;;;11.98;6.80;;;;;;;6.06;62.42;101549.19;688181;28;1281;-85
2021/12/12 01:05:46;;;;;;;13.50;6.80;;;;;;;6.17;62.53;101568.84;691923;28;1491;-85
2021/12/12 01:06:11;;;;;;;14.02;6.80;;;;;;;6.09;62.05;101557.13;692210;28;1380;-85
2021/12/12 01:06:33;;;;;;;12.77;6.70;;;;;;;6.10;62.46;101557.22;692055;28;887;-85
2021/12/12 01:06:55;;;;;;;12.18;6.50;;;;;;;6.15;62.25;101562.69;687652;28;1340;-85
2021/12/12 01:07:22;;;;;;;12.25;6.30;;;;;;;6.08;62.64;101550.16;685602;28;1209;-84
2021/12/12 01:07:45;;;;;;;14.15;6.20;;;;;;;6.11;62.15;101555.50;687799;28;1493;-85
2021/12/12 01:08:07;;;;;;;15.94;6.74;;;;;;;6.12;62.16;101552.09;690136;28;1273;-85
2021/12/12 01:08:29;;;;;;;13.75;6.70;;;;;;;6.09;62.44;101552.84;690451;28;1403;-85
2021/12/12 01:08:51;;;;;;;14.95;6.70;;;;;;;6.06;62.20;101551.78;685412;28;1449;-85
2021/12/12 01:09:20;;;;;;;15.57;6.78;;;;;;;6.12;62.44;101557.28;685311;28;1392;-84
2021/12/12 01:09:47;;;;;;;17.48;6.97;;;;;;;6.13;62.22;101559.06;686234;28;1253;-85
2021/12/12 01:10:30;;;;;;;16.00;7.10;;;;;;;6.02;62.30;101548.09;681119;28;1359;-85
2021/12/12 01:10:59;;;;;;;13.98;7.70;;;;;;;6.05;62.84;101562.91;685941;28;1978;-85
2021/12/12 01:11:37;;;;;;;14.90;7.32;;;;;;;6.06;62.35;101556.94;688086;28;1259;-85
2021/12/12 01:12:03;;;;;;;14.38;7.30;;;;;;;6.09;62.64;101567.50;685692;28;1258;-85
2021/12/12 01:12:29;;;;;;;15.95;7.38;;;;;;;6.00;62.64;101552.28;690297;28;1285;-85
2021/12/12 01:12:51;;;;;;;16.38;7.53;;;;;;;6.01;62.40;101551.47;689255;28;1370;-84
2021/12/12 01:13:12;;;;;;;13.98;7.45;;;;;;;5.98;62.56;101557.38;686060;28;1373;-85
2021/12/12 01:13:33;;;;;;;13.80;7.50;;;;;;;5.92;62.77;101554.44;685210;28;814;-85
2021/12/12 01:13:54;;;;;;;11.45;6.90;;;;;;;5.91;62.74;101552.63;684502;28;1315;-85
2021/12/12 01:14:20;;;;;;;12.52;6.72;;;;;;;5.98;62.81;101564.25;685486;28;1211;-85
2021/12/12 01:14:45;;;;;;;12.32;6.70;;;;;;;5.97;63.02;101563.38;692363;28;1299;-85
2021/12/12 01:15:30;;;;;;;11.40;6.60;;;;;;;6.02;62.84;101571.41;693152;28;1304;-85
2021/12/12 01:16:06;;;;;;;13.48;6.70;;;;;;;6.00;62.86;101566.13;687618;28;1346;-84
2021/12/12 01:16:35;;;;;;;12.13;6.85;;;;;;;6.09;63.17;101572.66;683825;28;1294;-85
2021/12/12 01:17:05;;;;;;;12.85;7.18;;;;;;;6.09;62.91;101563.22;687708;28;1025;-85
2021/12/12 01:17:38;;;;;;;11.88;6.70;;;;;;;6.12;62.93;101572.84;684634;28;1138;-85
2021/12/12 01:18:04;;;;;;;10.20;6.20;;;;;;;6.14;62.49;101573.84;692952;28;1012;-85
2021/12/12 01:18:30;;;;;;;11.52;6.97;;;;;;;6.00;62.85;101549.69;689193;28;1329;-85
2021/12/12 01:18:57;;;;;;;12.43;7.10;;;;;;;6.03;62.48;101553.34;687519;28;1143;-85
2021/12/12 01:19:25;;;;;;;13.52;6.80;;;;;;;6.12;62.57;101567.66;686539;28;1068;-84
2021/12/12 01:20:00;;;;;;;12.27;6.38;;;;;;;6.05;62.25;101563.81;688362;28;1316;-85
2021/12/12 01:20:33;;;;;;;14.27;6.90;;;;;;;6.09;62.63;101567.50;686911;28;1393;-85
2021/12/12 01:20:59;;;;;;;14.73;6.90;;;;;;;6.14;62.41;101560.88;687339;28;1309;-85
2021/12/12 01:21:29;;;;;;;12.32;6.80;;;;;;;6.09;62.28;101552.84;688654;28;1363;-85
2021/12/12 01:21:53;;;;;;;11.80;7.15;;;;;;;6.02;62.41;101542.91;688100;28;1451;-84
2021/12/12 01:22:22;;;;;;;12.00;7.30;;;;;;;6.00;62.17;101542.81;685139;28;926;-85
2021/12/12 01:22:43;;;;;;;12.93;6.70;;;;;;;6.15;62.07;101567.84;690749;28;1205;-85
2021/12/12 01:23:36;;;;;;;11.57;6.60;;;;;;;6.14;62.22;101569.53;690245;28;1114;-85
2021/12/12 01:24:05;;;;;;;12.88;6.50;;;;;;;6.09;62.52;101568.41;689273;28;1250;-85
2021/12/12 01:24:34;;;;;;;15.40;6.65;;;;;;;6.12;62.46;101563.38;689904;28;771;-85
2021/12/12 01:24:59;;;;;;;17.40;6.70;;;;;;;6.05;62.24;101550.88;683523;28;1005;-85
2021/12/12 01:25:25;;;;;;;18.90;6.70;;;;;;;6.14;62.70;101563.47;684379;28;1601;-85
2021/12/12 01:25:48;;;;;;;14.55;6.40;;;;;;;6.03;62.16;101552.47;686398;28;1239;-85
2021/12/12 01:26:09;;;;;;;11.27;6.10;;;;;;;6.05;62.62;101544.78;687388;28;1281;-84
2021/12/12 01:26:30;;;;;;;12.20;6.78;;;;;;;6.06;62.72;101551.78;687542;28;1272;-85
2021/12/12 01:26:53;;;;;;;12.20;6.82;;;;;;;6.12;62.29;101558.19;692398;28;1170;-85
2021/12/12 01:27:14;;;;;;;10.15;6.32;;;;;;;6.11;62.70;101555.50;690041;28;1460;-85
2021/12/12 01:27:35;;;;;;;9.57;6.20;;;;;;;6.09;62.65;101562.31;690060;28;1291;-85
2021/12/12 01:27:57;;;;;;;11.65;6.40;;;;;;;6.12;62.38;101567.66;687630;28;1381;-85
2021/12/12 01:28:23;;;;;;;11.32;6.32;;;;;;;6.02;62.28;101551.56;687188;28;1351;-84
2021/12/12 01:28:47;;;;;;;11.25;6.03;;;;;;;6.03;62.62;101548.16;686770;28;1250;-85
2021/12/12 01:29:08;;;;;;;8.88;5.96;;;;;;;6.08;62.64;101561.41;685429;28;1422;-85
2021/12/12 01:29:29;;;;;;;10.57;6.00;;;;;;;6.08;62.48;101553.63;679218;29;1292;-85
2021/12/12 01:29:50;;;;;;;10.50;6.30;;;;;;;6.02;62.62;101551.56;686830;28;1949;-84
2021/12/12 01:30:13;;;;;;;11.35;6.65;;;;;;;6.01;62.66;101548.88;687632;28;1318;-84
2021/12/12 01:30:33;;;;;;;9.45;6.47;;;;;;;6.10;62.64;101569.28;686488;28;1501;-85
2021/12/12 01:31:05;;;;;;;9.43;6.38;;;;;;;6.03;62.66;101558.53;687419;28;1981;-85
2021/12/12 01:31:32;;;;;;;13.02;6.28;;;;;;;6.03;62.77;101562.84;684367;28;1192;-85
2021/12/12 01:31:55;;;;;;;14.05;6.30;;;;;;;6.00;62.47;101542.81;687305;28;1238;-85
2021/12/12 01:32:28;;;;;;;11.38;6.60;;;;;;;6.05;62.76;101555.13;679791;29;1035;-85
2021/12/12 01:32:50;;;;;;;10.50;6.57;;;;;;;6.03;62.52;101548.16;684035;28;1107;-85
2021/12/12 01:33:12;;;;;;;11.10;6.35;;;;;;;6.06;62.49;101546.59;687641;28;1537;-85
2021/12/12 01:33:35;;;;;;;9.68;6.20;;;;;;;6.06;62.40;101542.28;686580;28;1386;-85
2021/12/12 01:34:12;;;;;;;9.90;6.30;;;;;;;6.11;61.88;101555.50;690051;28;1289;-85
2021/12/12 01:34:34;;;;;;;8.98;5.68;;;;;;;6.12;62.67;101560.78;687056;28;1128;-85
2021/12/12 01:34:58;;;;;;;8.95;5.60;;;;;;;6.05;62.36;101544.78;687377;28;1552;-85
2021/12/12 01:35:20;;;;;;;8.75;5.70;;;;;;;6.12;62.37;101552.09;687761;28;1508;-85
2021/12/12 01:35:41;;;;;;;9.50;5.90;;;;;;;6.14;62.52;101561.75;688882;28;1263;-85
2021/12/12 01:36:09;;;;;;;9.10;5.55;;;;;;;6.19;62.41;101564.63;687671;28;1143;-85
2021/12/12 01:36:44;;;;;;;9.35;5.85;;;;;;;6.11;62.24;101550.31;688598;28;1174;-84
2021/12/12 01:37:34;;;;;;;10.10;6.10;;;;;;;6.13;62.31;101551.28;684579;28;1309;-85
2021/12/12 01:38:55;;;;;;;10.93;6.00;;;;;;;6.23;61.81;101555.31;689685;28;1380;-84
2021/12/12 01:39:21;;;;;;;11.65;6.22;;;;;;;6.22;62.37;101554.44;692404;28;1324;-85
2021/12/12 01:39:44;;;;;;;9.85;5.70;;;;;;;6.21;62.15;101557.84;690646;28;1170;-85
2021/12/12 01:40:26;;;;;;;12.18;5.93;;;;;;;6.19;61.51;101562.03;687272;28;1293;-85
2021/12/12 01:40:51;;;;;;;12.00;6.38;;;;;;;6.18;62.02;101562.84;687868;28;1367;-85
2021/12/12 01:41:12;;;;;;;12.85;6.10;;;;;;;6.21;61.92;101568.22;685186;28;930;-84
2021/12/12 01:41:46;;;;;;;15.13;6.53;;;;;;;6.23;61.87;101563.09;684250;28;1253;-84
2021/12/12 01:42:06;;;;;;;16.30;6.57;;;;;;;6.21;61.68;101564.72;687378;28;1142;-85
2021/12/12 01:42:32;;;;;;;12.20;6.60;;;;;;;6.11;61.89;101545.13;690259;28;1301;-85
2021/12/12 01:43:01;;;;;;;10.05;6.30;;;;;;;6.17;61.84;101561.06;690335;28;1085;-85
2021/12/12 01:43:29;;;;;;;13.88;6.90;;;;;;;6.07;61.96;101544.06;685313;28;1218;-85
2021/12/12 01:43:55;;;;;;;15.20;7.20;;;;;;;6.12;61.76;101553.00;684438;28;1979;-85
2021/12/12 01:44:27;;;;;;;14.32;6.78;;;;;;;6.10;61.92;101559.81;688886;28;1137;-84
2021/12/12 01:45:10;;;;;;;9.92;5.42;;;;;;;6.19;62.12;101569.81;685453;28;1128;-85
2021/12/12 01:45:37;;;;;;;7.90;5.20;;;;;;;6.09;62.15;101549.34;684741;28;1182;-86
2021/12/12 01:46:02;;;;;;;9.45;5.50;;;;;;;6.19;61.93;101569.81;690402;28;1206;-85
2021/12/12 01:46:35;;;;;;;10.85;5.85;;;;;;;6.15;61.95;101555.78;690353;28;1360;-85
2021/12/12 01:47:18;;;;;;;10.27;5.75;;;;;;;6.13;61.79;101564.25;687574;28;1333;-84
2021/12/12 01:48:13;;;;;;;9.05;5.97;;;;;;;6.13;62.00;101557.38;689433;28;1247;-85
2021/12/12 01:48:45;;;;;;;10.68;5.88;;;;;;;6.18;62.04;101560.25;684472;28;1319;-85
2021/12/12 01:49:16;;;;;;;13.20;6.00;;;;;;;6.15;61.86;101552.31;684751;28;1315;-85
2021/12/12 01:49:41;;;;;;;12.18;5.60;;;;;;;6.22;61.75;101569.09;684708;28;1056;-85
2021/12/12 01:50:11;;;;;;;11.07;5.03;;;;;;;6.22;62.13;101571.69;689836;28;1459;-84
2021/12/12 01:50:39;;;;;;;11.90;5.28;;;;;;;6.16;61.80;101564.47;687581;28;1561;-85
2021/12/12 01:51:04;;;;;;;14.15;5.60;;;;;;;6.22;62.13;101570.00;686799;28;1466;-85
2021/12/12 01:51:27;;;;;;;13.57;5.40;;;;;;;6.13;62.25;101552.19;681294;29;1283;-85
2021/12/12 01:51:52;;;;;;;11.45;5.40;;;;;;;6.26;61.84;101571.97;689101;28;1143;-85
2021/12/12 01:52:17;;;;;;;11.52;5.28;;;;;;;6.17;61.59;101550.69;687626;28;1252;-84
2021/12/12 01:52:40;;;;;;;10.40;5.35;;;;;;;6.22;61.88;101559.63;686176;28;1167;-84
2021/12/12 01:53:05;;;;;;;9.85;5.50;;;;;;;6.19;61.64;101554.25;687618;28;1429;-85
2021/12/12 01:53:29;;;;;;;10.02;5.60;;;;;;;6.27;61.43;101567.69;690142;28;1447;-85
2021/12/12 01:53:55;;;;;;;12.45;5.97;;;;;;;6.24;61.63;101560.63;687940;28;1609;-85
2021/12/12 01:54:22;;;;;;;11.98;5.30;;;;;;;6.25;61.90;101558.91;689489;28;1237;-85
2021/12/12 01:54:46;;;;;;;14.35;5.38;;;;;;;6.25;61.52;101562.41;686541;28;1400;-85
2021/12/12 01:55:12;;;;;;;10.80;5.32;;;;;;;6.17;61.34;101540.31;685688;28;1387;-85
2021/12/12 01:55:44;;;;;;;7.60;5.20;;;;;;;6.26;61.12;101550.34;684736;28;1491;-85
2021/12/12 01:56:04;;;;;;;6.80;4.95;;;;;;;6.30;61.36;101555.78;687331;28;1274;-85
2021/12/12 01:56:31;;;;;;;9.48;5.15;;;;;;;6.18;61.77;101541.22;685023;28;1291;-85
2021/12/12 01:56:59;;;;;;;9.55;5.20;;;;;;;6.23;61.40;101548.47;687857;28;1282;-85
2021/12/12 01:57:27;;;;;;;8.45;4.90;;;;;;;6.29;60.95;101545.31;685085;28;1436;-85
2021/12/12 01:57:49;;;;;;;7.12;4.60;;;;;;;6.35;61.03;101550.88;687065;28;1350;-85
2021/12/12 01:58:14;;;;;;;6.70;4.93;;;;;;;6.34;60.89;101543.91;687358;28;1376;-84
2021/12/12 01:58:38;;;;;;;7.15;4.82;;;;;;;6.38;60.73;101540.66;684819;28;1261;-84
2021/12/12 01:59:03;;;;;;;7.82;4.82;;;;;;;6.49;61.09;101553.34;687455;28;1141;-85
2021/12/12 01:59:28;;;;;;;9.07;4.80;;;;;;;6.39;60.80;101541.56;681845;29;1407;-85
2021/12/12 01:59:50;;;;;;;8.55;4.97;;;;;;;6.29;61.01;101545.31;682494;28;1548;-83
2021/12/12 02:00:20;;;;;;;8.52;5.07;;;;;;;6.34;60.85;101554.28;684542;28;1281;-84
2021/12/12 02:00:51;;;;;;;7.53;4.95;;;;;;;6.12;61.11;101533.97;688057;28;1458;-85
2021/12/12 02:01:17;;;;;;;10.02;5.50;;;;;;;6.22;61.24;101549.28;689847;28;1098;-85
2021/12/12 02:01:44;;;;;;;8.32;5.30;;;;;;;6.27;60.93;101553.00;689056;28;1230;-85
2021/12/12 02:02:10;;;;;;;5.90;4.57;;;;;;;6.20;61.08;101530.13;689747;28;1283;-85
2021/12/12 02:02:33;;;;;;;7.40;4.50;;;;;;;6.28;61.15;101551.31;685002;28;1278;-85